createdAt,value
2018-06-04T00:00:42.029Z,20.20
2018-06-04T00:02:36.331Z,20.40
2018-06-04T00:03:36.254Z,19.00
2018-06-04T00:05:29.529Z,19.10
2018-06-04T00:06:29.472Z,20.20
2018-06-04T00:08:22.776Z,20.00
2018-06-04T00:09:22.694Z,19.70
2018-06-04T00:11:17.077Z,20.20
2018-06-04T00:12:16.918Z,18.90
2018-06-04T00:14:10.226Z,19.40
2018-06-04T00:15:10.139Z,20.50
2018-06-04T00:17:03.439Z,20.00
2018-06-04T00:18:03.361Z,21.50
2018-06-04T00:19:56.749Z,20.20
2018-06-04T00:20:56.580Z,20.00
2018-06-04T00:22:50.488Z,18.90
2018-06-04T00:23:49.804Z,20.10
2018-06-04T00:25:44.093Z,19.40
2018-06-04T00:26:44.033Z,19.80
2018-06-04T00:28:37.346Z,20.20
2018-06-04T00:29:37.268Z,20.50
2018-06-04T00:31:30.648Z,20.40
2018-06-04T00:32:30.486Z,19.70
2018-06-04T00:34:23.787Z,20.50
2018-06-04T00:35:23.704Z,20.70
2018-06-04T00:37:18.112Z,20.70
2018-06-04T00:38:17.927Z,20.50
2018-06-04T00:40:12.207Z,20.80
2018-06-04T00:41:12.153Z,21.30
2018-06-04T00:43:05.453Z,20.50
2018-06-04T00:44:05.372Z,20.70
2018-06-04T00:45:58.751Z,20.50
2018-06-04T00:46:58.597Z,20.70
2018-06-04T00:48:52.898Z,20.80
2018-06-04T00:49:52.817Z,21.40
2018-06-04T00:51:47.117Z,21.10
2018-06-04T00:52:47.036Z,21.50
2018-06-04T00:54:40.320Z,21.50
2018-06-04T00:55:40.257Z,21.80
2018-06-04T00:57:34.549Z,21.10
2018-06-04T00:58:34.467Z,20.60
2018-06-04T01:00:27.768Z,21.00
2018-06-04T01:01:27.690Z,22.30
2018-06-04T01:03:20.968Z,21.80
2018-06-04T01:04:20.907Z,21.80
2018-06-04T01:06:14.208Z,22.50
2018-06-04T01:07:14.126Z,22.20
2018-06-04T01:09:08.412Z,22.70
2018-06-04T01:10:08.346Z,22.20
2018-06-04T01:12:01.648Z,21.90
2018-06-04T01:13:01.568Z,22.00
2018-06-04T01:14:54.847Z,22.10
2018-06-04T01:15:54.786Z,21.90
2018-06-04T01:17:48.079Z,21.50
2018-06-04T01:18:48.000Z,22.00
2018-06-04T01:20:41.356Z,22.40
2018-06-04T01:21:41.278Z,20.90
2018-06-04T01:23:35.553Z,22.90
2018-06-04T01:24:35.488Z,21.80
2018-06-04T01:26:28.791Z,21.20
2018-06-04T01:27:28.709Z,22.00
2018-06-04T01:29:22.005Z,22.40
2018-06-04T01:30:21.930Z,23.40
2018-06-04T01:32:16.231Z,21.90
2018-06-04T01:33:16.152Z,20.80
2018-06-04T01:35:09.433Z,22.40
2018-06-04T01:36:09.373Z,23.10
2018-06-04T01:38:02.665Z,23.40
2018-06-04T01:39:02.582Z,23.10
2018-06-04T01:40:55.885Z,22.60
2018-06-04T01:41:55.805Z,22.20
2018-06-04T01:43:50.086Z,21.60
2018-06-04T01:44:50.026Z,21.30
2018-06-04T01:46:43.350Z,23.30
2018-06-04T01:47:43.269Z,22.60
2018-06-04T01:49:36.549Z,22.40
2018-06-04T01:50:36.490Z,21.90
2018-06-04T01:52:29.788Z,21.70
2018-06-04T01:53:29.709Z,22.50
2018-06-04T01:55:22.990Z,21.90
2018-06-04T01:56:22.929Z,22.00
2018-06-04T01:58:16.232Z,22.60
2018-06-04T01:59:16.152Z,22.30
2018-06-04T02:01:09.559Z,23.20
2018-06-04T02:02:09.373Z,22.30
2018-06-04T02:04:02.654Z,24.10
2018-06-04T02:05:02.595Z,22.30
2018-06-04T02:06:55.996Z,22.70
2018-06-04T02:07:55.814Z,22.40
2018-06-04T02:09:49.104Z,22.00
2018-06-04T02:10:49.024Z,23.60
2018-06-04T02:12:42.312Z,23.00
2018-06-04T02:13:42.248Z,23.20
2018-06-04T02:15:37.147Z,22.40
2018-06-04T02:16:36.464Z,24.10
2018-06-04T02:18:29.764Z,25.80
2018-06-04T02:19:29.685Z,24.70
2018-06-04T02:21:22.954Z,25.00
2018-06-04T02:22:22.894Z,24.10
2018-06-04T02:24:17.184Z,23.50
2018-06-04T02:25:17.103Z,23.40
2018-06-04T02:27:10.386Z,24.80
2018-06-04T02:28:10.322Z,26.60
2018-06-04T02:30:03.622Z,25.40
2018-06-04T02:31:03.549Z,23.70
2018-06-04T02:32:56.815Z,24.00
2018-06-04T02:33:56.748Z,25.90
2018-06-04T02:35:50.054Z,25.40
2018-06-04T02:36:49.975Z,26.10
2018-06-04T02:38:44.276Z,24.70
2018-06-04T02:39:44.193Z,24.90
2018-06-04T02:41:37.472Z,24.60
2018-06-04T02:42:37.414Z,25.00
2018-06-04T02:44:30.702Z,25.00
2018-06-04T02:45:30.622Z,25.00
2018-06-04T02:47:23.898Z,25.20
2018-06-04T02:48:23.836Z,25.00
2018-06-04T02:50:17.128Z,25.50
2018-06-04T02:51:17.049Z,26.20
2018-06-04T02:53:10.327Z,26.80
2018-06-04T02:54:10.266Z,25.70
2018-06-04T02:56:03.565Z,26.70
2018-06-04T02:57:03.486Z,26.50
2018-06-04T02:58:56.888Z,26.50
2018-06-04T02:59:56.705Z,27.60
2018-06-04T03:01:49.985Z,27.90
2018-06-04T03:02:49.925Z,27.60
2018-06-04T03:04:43.214Z,27.00
2018-06-04T03:05:43.135Z,26.20
2018-06-04T03:07:36.519Z,25.80
2018-06-04T03:08:36.344Z,27.50
2018-06-04T03:10:29.752Z,26.50
2018-06-04T03:11:29.573Z,25.80
2018-06-04T03:13:23.952Z,26.00
2018-06-04T03:14:23.781Z,26.30
2018-06-04T03:16:17.688Z,26.70
2018-06-04T03:17:16.990Z,26.30
2018-06-04T03:19:10.895Z,27.90
2018-06-04T03:20:10.206Z,27.10
2018-06-04T03:22:03.590Z,26.60
2018-06-04T03:23:03.427Z,26.80
2018-06-04T03:24:56.726Z,27.70
2018-06-04T03:25:56.646Z,28.90
2018-06-04T03:27:50.032Z,28.20
2018-06-04T03:28:49.869Z,28.00
2018-06-04T03:30:43.156Z,30.20
2018-06-04T03:31:43.076Z,29.80
2018-06-04T03:33:36.356Z,29.50
2018-06-04T03:34:36.296Z,30.70
2018-06-04T03:36:29.591Z,30.30
2018-06-04T03:37:29.505Z,30.20
2018-06-04T03:39:22.795Z,30.40
2018-06-04T03:40:22.716Z,31.60
2018-06-04T03:42:16.102Z,31.80
2018-06-04T03:43:15.932Z,33.10
2018-06-04T03:45:09.230Z,31.00
2018-06-04T03:46:09.150Z,31.60
2018-06-04T03:48:02.534Z,31.50
2018-06-04T03:49:02.374Z,30.80
2018-06-04T03:50:55.660Z,31.50
2018-06-04T03:51:55.585Z,31.30
2018-06-04T03:53:49.867Z,30.50
2018-06-04T03:54:49.802Z,30.10
2018-06-04T03:56:43.101Z,30.80
2018-06-04T03:57:43.021Z,30.20
2018-06-04T03:59:37.347Z,31.20
2018-06-04T04:00:37.267Z,30.90
2018-06-04T04:02:31.548Z,29.60
2018-06-04T04:03:31.488Z,30.10
2018-06-04T04:05:25.777Z,30.10
2018-06-04T04:06:25.697Z,30.90
2018-06-04T04:08:19.016Z,29.10
2018-06-04T04:09:18.907Z,29.20
2018-06-04T04:11:12.309Z,30.80
2018-06-04T04:12:12.127Z,29.70
2018-06-04T04:14:05.407Z,29.00
2018-06-04T04:15:05.346Z,28.80
2018-06-04T04:16:58.648Z,28.30
2018-06-04T04:17:58.568Z,30.20
2018-06-04T04:19:53.473Z,30.70
2018-06-04T04:20:52.778Z,29.30
2018-06-04T04:22:46.060Z,28.10
2018-06-04T04:23:46.003Z,28.40
2018-06-04T04:25:40.303Z,26.50
2018-06-04T04:26:40.221Z,28.10
2018-06-04T04:28:33.492Z,27.60
2018-06-04T04:29:33.433Z,26.90
2018-06-04T04:31:27.841Z,27.30
2018-06-04T04:32:27.653Z,26.20
2018-06-04T04:34:20.942Z,26.30
2018-06-04T04:35:20.879Z,26.30
2018-06-04T04:37:14.178Z,26.90
2018-06-04T04:38:14.103Z,26.10
2018-06-04T04:40:07.500Z,26.80
2018-06-04T04:41:07.351Z,26.80
2018-06-04T04:43:01.734Z,26.10
2018-06-04T04:44:01.567Z,27.50
2018-06-04T04:45:54.871Z,26.40
2018-06-04T04:46:54.788Z,27.40
2018-06-04T04:48:48.069Z,25.60
2018-06-04T04:49:48.009Z,27.30
2018-06-04T04:51:42.415Z,25.30
2018-06-04T04:52:42.231Z,27.10
2018-06-04T04:54:35.542Z,26.40
2018-06-04T04:55:35.449Z,26.10
2018-06-04T04:57:28.723Z,27.30
2018-06-04T04:58:28.665Z,26.20
2018-06-04T05:00:21.963Z,26.20
2018-06-04T05:01:21.883Z,27.30
2018-06-04T05:03:15.157Z,26.60
2018-06-04T05:04:15.096Z,26.70
2018-06-04T05:06:08.397Z,26.50
2018-06-04T05:07:08.319Z,26.20
2018-06-04T05:09:01.707Z,26.50
2018-06-04T05:10:01.543Z,26.30
2018-06-04T05:11:54.842Z,25.10
2018-06-04T05:12:54.764Z,25.90
2018-06-04T05:14:48.064Z,26.60
2018-06-04T05:15:47.987Z,26.60
2018-06-04T05:17:42.391Z,25.40
2018-06-04T05:18:42.202Z,26.20
2018-06-04T05:20:35.503Z,25.50
2018-06-04T05:21:35.426Z,26.40
2018-06-04T05:23:28.706Z,27.70
2018-06-04T05:24:28.648Z,26.40
2018-06-04T05:26:21.957Z,26.00
2018-06-04T05:27:21.872Z,26.20
2018-06-04T05:29:15.257Z,27.40
2018-06-04T05:30:15.096Z,27.00
2018-06-04T05:32:08.399Z,25.90
2018-06-04T05:33:08.323Z,24.60
2018-06-04T05:35:01.739Z,26.30
2018-06-04T05:36:01.546Z,25.10
2018-06-04T05:37:54.833Z,25.20
2018-06-04T05:38:54.771Z,26.40
2018-06-04T05:40:48.075Z,25.60
2018-06-04T05:41:47.997Z,26.20
2018-06-04T05:43:41.333Z,26.90
2018-06-04T05:44:41.307Z,27.20
2018-06-04T05:46:34.677Z,26.50
2018-06-04T05:47:34.489Z,26.40
2018-06-04T05:49:27.772Z,26.70
2018-06-04T05:50:27.714Z,25.50
2018-06-04T05:52:22.013Z,25.50
2018-06-04T05:53:21.943Z,24.40
2018-06-04T05:55:15.849Z,26.00
2018-06-04T05:56:15.207Z,24.80
2018-06-04T05:58:08.551Z,27.10
2018-06-04T05:59:08.381Z,26.40
2018-06-04T06:01:01.688Z,25.90
2018-06-04T06:02:01.609Z,24.00
2018-06-04T06:03:55.893Z,24.70
2018-06-04T06:04:55.835Z,23.90
2018-06-04T06:06:49.139Z,25.40
2018-06-04T06:07:49.063Z,25.00
2018-06-04T06:09:42.347Z,25.60
2018-06-04T06:10:42.287Z,26.20
2018-06-04T06:12:35.590Z,25.50
2018-06-04T06:13:35.514Z,27.10
2018-06-04T06:15:28.923Z,26.00
2018-06-04T06:16:28.749Z,24.50
2018-06-04T06:18:22.022Z,25.90
2018-06-04T06:19:21.967Z,25.70
2018-06-04T06:21:15.350Z,24.70
2018-06-04T06:22:15.278Z,24.50
2018-06-04T06:24:09.429Z,23.80
2018-06-04T06:25:09.392Z,23.10
2018-06-04T06:27:02.791Z,23.00
2018-06-04T06:28:02.627Z,22.80
2018-06-04T06:29:55.927Z,25.10
2018-06-04T06:30:55.879Z,23.90
2018-06-04T06:32:49.295Z,23.80
2018-06-04T06:33:49.135Z,23.60
2018-06-04T06:35:42.554Z,24.00
2018-06-04T06:36:42.389Z,22.50
2018-06-04T06:38:35.695Z,22.00
2018-06-04T06:39:35.646Z,22.10
2018-06-04T06:41:28.970Z,21.70
2018-06-04T06:42:28.907Z,21.80
2018-06-04T06:44:22.212Z,22.60
2018-06-04T06:45:22.163Z,21.40
2018-06-04T06:47:15.583Z,21.70
2018-06-04T06:48:15.413Z,22.10
2018-06-04T06:50:08.839Z,21.40
2018-06-04T06:51:08.663Z,22.80
2018-06-04T06:53:01.995Z,21.40
2018-06-04T06:54:01.922Z,22.10
2018-06-04T06:55:55.239Z,22.80
2018-06-04T06:56:55.175Z,22.70
2018-06-04T06:58:49.076Z,22.80
2018-06-04T06:59:48.424Z,23.20
2018-06-04T07:01:41.741Z,21.80
2018-06-04T07:02:41.677Z,23.00
2018-06-04T07:04:34.972Z,21.40
2018-06-04T07:05:34.926Z,21.20
2018-06-04T07:07:28.350Z,22.70
2018-06-04T07:08:28.182Z,21.90
2018-06-04T07:10:22.586Z,23.30
2018-06-04T07:11:22.434Z,23.30
2018-06-04T07:13:15.852Z,22.90
2018-06-04T07:14:15.735Z,23.70
2018-06-04T07:16:08.999Z,22.60
2018-06-04T07:17:08.933Z,23.70
2018-06-04T07:19:02.334Z,22.50
2018-06-04T07:20:02.183Z,23.10
2018-06-04T07:21:55.607Z,23.40
2018-06-04T07:22:55.432Z,23.80
2018-06-04T07:24:48.746Z,23.30
2018-06-04T07:25:48.703Z,24.00
2018-06-04T07:27:42.057Z,23.40
2018-06-04T07:28:41.989Z,23.10
2018-06-04T07:30:35.890Z,22.90
2018-06-04T07:31:35.290Z,23.20
2018-06-04T07:33:28.620Z,22.40
2018-06-04T07:34:28.550Z,23.50
2018-06-04T07:36:21.867Z,23.50
2018-06-04T07:37:21.801Z,23.80
2018-06-04T07:39:15.099Z,23.50
2018-06-04T07:40:15.055Z,22.70
2018-06-04T07:42:08.371Z,22.40
2018-06-04T07:43:08.303Z,22.70
2018-06-04T07:45:01.600Z,23.90
2018-06-04T07:46:01.554Z,23.10
2018-06-04T07:47:54.891Z,22.70
2018-06-04T07:48:54.804Z,23.30
2018-06-04T07:50:49.103Z,22.70
2018-06-04T07:51:49.057Z,22.40
2018-06-04T07:53:42.368Z,22.70
2018-06-04T07:54:42.301Z,22.00
2018-06-04T07:56:35.619Z,22.80
2018-06-04T07:57:35.557Z,22.70
2018-06-04T07:59:28.960Z,21.90
2018-06-04T08:00:28.802Z,21.10
2018-06-04T08:02:22.119Z,22.40
2018-06-04T08:03:22.052Z,22.00
2018-06-04T08:05:16.360Z,23.40
2018-06-04T08:06:16.348Z,23.00
2018-06-04T08:08:09.631Z,22.90
2018-06-04T08:09:09.561Z,22.50
2018-06-04T08:11:02.856Z,23.90
2018-06-04T08:12:02.809Z,21.40
2018-06-04T08:13:56.129Z,20.80
2018-06-04T08:14:56.061Z,21.10
2018-06-04T08:16:49.372Z,20.80
2018-06-04T08:17:49.306Z,21.00
2018-06-04T08:19:42.608Z,20.50
2018-06-04T08:20:42.567Z,19.90
2018-06-04T08:22:35.873Z,21.40
2018-06-04T08:23:35.804Z,23.10
2018-06-04T08:25:29.096Z,19.10
2018-06-04T08:26:29.047Z,20.30
2018-06-04T08:28:22.360Z,19.00
2018-06-04T08:29:22.325Z,18.70
2018-06-04T08:31:15.582Z,20.50
2018-06-04T08:32:15.531Z,19.80
2018-06-04T08:34:09.453Z,22.10
2018-06-04T08:35:08.771Z,23.10
2018-06-04T08:37:02.102Z,17.40
2018-06-04T08:38:02.027Z,16.20
2018-06-04T08:39:55.337Z,17.20
2018-06-04T08:40:55.287Z,17.90
2018-06-04T08:42:48.709Z,18.60
2018-06-04T08:43:48.524Z,17.70
2018-06-04T08:45:41.858Z,18.40
2018-06-04T08:46:41.763Z,19.60
2018-06-04T08:48:35.077Z,20.40
2018-06-04T08:49:35.006Z,21.30
2018-06-04T08:51:28.295Z,20.20
2018-06-04T08:52:28.246Z,20.50
2018-06-04T08:54:21.553Z,19.60
2018-06-04T08:55:21.484Z,20.60
2018-06-04T08:57:14.901Z,19.70
2018-06-04T08:58:14.733Z,20.40
2018-06-04T09:00:08.026Z,20.10
2018-06-04T09:01:07.977Z,20.10
2018-06-04T09:03:01.360Z,21.00
2018-06-04T09:04:01.285Z,21.30
2018-06-04T09:05:54.683Z,22.40
2018-06-04T09:06:54.524Z,22.10
2018-06-04T09:08:47.940Z,21.20
2018-06-04T09:09:47.820Z,20.70
2018-06-04T09:11:41.053Z,20.60
2018-06-04T09:12:41.004Z,19.70
2018-06-04T09:14:34.312Z,16.90
2018-06-04T09:15:34.246Z,18.40
2018-06-04T09:17:27.658Z,17.90
2018-06-04T09:18:27.483Z,18.40
2018-06-04T09:20:20.786Z,20.70
2018-06-04T09:21:20.728Z,22.30
2018-06-04T09:23:14.034Z,20.60
2018-06-04T09:24:13.962Z,21.10
2018-06-04T09:26:07.335Z,18.90
2018-06-04T09:27:07.282Z,19.10
2018-06-04T09:29:00.600Z,21.00
2018-06-04T09:30:00.538Z,18.80
2018-06-04T09:31:53.812Z,20.30
2018-06-04T09:32:53.784Z,20.50
2018-06-04T09:34:47.067Z,20.50
2018-06-04T09:35:46.998Z,20.90
2018-06-04T09:37:40.320Z,22.60
2018-06-04T09:38:40.234Z,21.60
2018-06-04T09:40:33.521Z,19.90
2018-06-04T09:41:33.468Z,20.10
2018-06-04T09:43:26.822Z,18.20
2018-06-04T09:44:26.752Z,18.60
2018-06-04T09:46:20.030Z,20.00
2018-06-04T09:47:19.975Z,19.30
2018-06-04T09:49:13.354Z,18.60
2018-06-04T09:50:13.280Z,18.20
2018-06-04T09:52:07.567Z,18.00
2018-06-04T09:53:07.518Z,19.60
2018-06-04T09:55:00.932Z,19.90
2018-06-04T09:56:00.752Z,19.20
2018-06-04T09:57:54.061Z,18.90
2018-06-04T09:58:53.992Z,18.40
2018-06-04T10:00:48.427Z,17.70
2018-06-04T10:01:48.228Z,16.50
2018-06-04T10:03:41.537Z,15.60
2018-06-04T10:04:41.517Z,15.10
2018-06-04T10:06:34.862Z,14.80
2018-06-04T10:07:34.702Z,14.20
2018-06-04T10:09:28.014Z,17.90
2018-06-04T10:10:27.948Z,16.80
2018-06-04T10:12:21.241Z,15.90
2018-06-04T10:13:21.181Z,14.80
2018-06-04T10:15:14.592Z,22.50
2018-06-04T10:16:14.419Z,21.90
2018-06-04T10:18:08.722Z,24.60
2018-06-04T10:19:08.651Z,24.00
2018-06-04T10:21:02.045Z,26.80
2018-06-04T10:22:01.895Z,26.00
2018-06-04T10:23:56.202Z,25.80
2018-06-04T10:24:56.128Z,25.20
2018-06-04T10:26:49.522Z,26.10
2018-06-04T10:27:49.370Z,25.90
2018-06-04T10:29:42.669Z,24.40
2018-06-04T10:30:42.597Z,22.40
2018-06-04T10:32:35.992Z,22.90
2018-06-04T10:33:35.849Z,26.10
2018-06-04T10:35:29.757Z,24.80
2018-06-04T10:36:29.075Z,24.70
2018-06-04T10:38:22.387Z,27.30
2018-06-04T10:39:22.319Z,26.60
2018-06-04T10:41:15.612Z,26.60
2018-06-04T10:42:15.562Z,26.30
2018-06-04T10:44:08.981Z,29.60
2018-06-04T10:45:08.805Z,28.00
2018-06-04T10:47:02.100Z,28.10
2018-06-04T10:48:02.055Z,28.30
2018-06-04T10:49:55.361Z,26.20
2018-06-04T10:50:55.292Z,24.80
2018-06-04T10:52:48.587Z,25.80
2018-06-04T10:53:48.540Z,25.10
2018-06-04T10:55:41.851Z,25.70
2018-06-04T10:56:41.784Z,26.80
2018-06-04T10:58:35.202Z,26.10
2018-06-04T10:59:35.029Z,24.10
2018-06-04T11:01:28.321Z,23.80
2018-06-04T11:02:28.273Z,23.40
2018-06-04T11:04:21.581Z,24.20
2018-06-04T11:05:21.516Z,24.90
2018-06-04T11:07:14.812Z,25.70
2018-06-04T11:08:14.760Z,25.50
2018-06-04T11:10:08.071Z,24.90
2018-06-04T11:11:08.002Z,23.70
2018-06-04T11:13:01.332Z,22.90
2018-06-04T11:14:01.291Z,23.20
2018-06-04T11:15:54.597Z,26.10
2018-06-04T11:16:54.528Z,26.30
2018-06-04T11:18:47.949Z,27.40
2018-06-04T11:19:47.778Z,26.70
2018-06-04T11:21:41.079Z,26.00
2018-06-04T11:22:41.027Z,26.90
2018-06-04T11:24:34.355Z,26.40
2018-06-04T11:25:34.284Z,26.80
2018-06-04T11:27:27.574Z,26.40
2018-06-04T11:28:27.523Z,25.50
2018-06-04T11:30:20.943Z,26.50
2018-06-04T11:31:20.769Z,24.30
2018-06-04T11:33:14.162Z,26.60
2018-06-04T11:34:14.015Z,25.70
2018-06-04T11:36:07.354Z,25.70
2018-06-04T11:37:07.282Z,25.80
2018-06-04T11:39:00.595Z,26.10
2018-06-04T11:40:00.526Z,25.30
2018-06-04T11:41:54.838Z,26.00
2018-06-04T11:42:54.787Z,26.80
2018-06-04T11:44:48.100Z,26.30
2018-06-04T11:45:48.033Z,25.80
2018-06-04T11:47:41.335Z,24.50
2018-06-04T11:48:41.283Z,24.80
2018-06-04T11:50:34.610Z,25.70
2018-06-04T11:51:34.527Z,24.60
2018-06-04T11:53:28.823Z,24.50
2018-06-04T11:54:28.771Z,22.50
2018-06-04T11:56:22.152Z,22.60
2018-06-04T11:57:22.025Z,23.50
2018-06-04T11:59:15.357Z,23.90
2018-06-04T12:00:15.281Z,23.30
2018-06-04T12:02:08.574Z,23.70
2018-06-04T12:03:08.519Z,23.60
2018-06-04T12:05:02.843Z,23.40
2018-06-04T12:06:02.766Z,23.70
2018-06-04T12:07:56.053Z,25.10
2018-06-04T12:08:56.000Z,25.50
2018-06-04T12:10:49.352Z,26.20
2018-06-04T12:11:49.296Z,26.30
2018-06-04T12:13:42.573Z,24.00
2018-06-04T12:14:42.519Z,24.20
2018-06-04T12:16:35.835Z,24.20
2018-06-04T12:17:35.763Z,24.10
2018-06-04T12:19:29.074Z,25.50
2018-06-04T12:20:29.004Z,25.80
2018-06-04T12:22:22.395Z,24.40
2018-06-04T12:23:22.243Z,25.50
2018-06-04T12:25:15.556Z,24.40
2018-06-04T12:26:15.485Z,23.60
2018-06-04T12:28:08.821Z,25.40
2018-06-04T12:29:08.726Z,24.70
2018-06-04T12:31:02.040Z,24.80
2018-06-04T12:32:01.967Z,24.20
2018-06-04T12:33:55.358Z,23.10
2018-06-04T12:34:55.280Z,22.30
2018-06-04T12:36:48.592Z,25.20
2018-06-04T12:37:48.519Z,24.50
2018-06-04T12:39:41.832Z,26.00
2018-06-04T12:40:41.759Z,25.30
2018-06-04T12:42:35.053Z,24.40
2018-06-04T12:43:34.998Z,24.50
2018-06-04T12:45:28.319Z,23.00
2018-06-04T12:46:28.231Z,22.70
2018-06-04T12:48:21.530Z,22.30
2018-06-04T12:49:21.478Z,24.00
2018-06-04T12:51:14.787Z,23.00
2018-06-04T12:52:14.714Z,23.20
2018-06-04T12:54:08.006Z,23.60
2018-06-04T12:55:07.952Z,23.60
2018-06-04T12:57:01.353Z,21.60
2018-06-04T12:58:01.277Z,22.10
2018-06-04T12:59:54.690Z,20.70
2018-06-04T13:00:54.516Z,20.90
2018-06-04T13:02:47.809Z,21.00
2018-06-04T13:03:47.755Z,20.20
2018-06-04T13:05:41.174Z,18.30
2018-06-04T13:06:40.995Z,20.20
2018-06-04T13:08:34.290Z,17.50
2018-06-04T13:09:34.239Z,18.70
2018-06-04T13:11:27.551Z,20.60
2018-06-04T13:12:27.477Z,22.30
2018-06-04T13:14:20.769Z,21.20
2018-06-04T13:15:20.716Z,21.00
2018-06-04T13:17:14.129Z,22.70
2018-06-04T13:18:13.959Z,23.10
2018-06-04T13:20:07.352Z,22.90
2018-06-04T13:21:07.278Z,23.30
2018-06-04T13:23:00.572Z,24.20
2018-06-04T13:24:00.519Z,23.90
2018-06-04T13:25:53.929Z,22.30
2018-06-04T13:26:53.768Z,24.10
2018-06-04T13:28:47.061Z,22.60
2018-06-04T13:29:47.007Z,21.90
2018-06-04T13:31:40.418Z,23.70
2018-06-04T13:32:40.248Z,21.60
2018-06-04T13:34:33.561Z,22.60
2018-06-04T13:35:33.505Z,24.20
2018-06-04T13:37:26.819Z,22.40
2018-06-04T13:38:26.746Z,21.90
2018-06-04T13:40:20.059Z,23.90
2018-06-04T13:41:19.989Z,23.00
2018-06-04T13:43:13.343Z,24.20
2018-06-04T13:44:13.278Z,23.50
2018-06-04T13:46:06.595Z,24.40
2018-06-04T13:47:06.517Z,23.30
2018-06-04T13:48:59.815Z,23.10
2018-06-04T13:49:59.757Z,23.00
2018-06-04T13:51:53.070Z,21.50
2018-06-04T13:52:52.996Z,19.60
2018-06-04T13:54:46.311Z,21.60
2018-06-04T13:55:46.259Z,21.80
2018-06-04T13:57:39.572Z,21.20
2018-06-04T13:58:39.499Z,20.70
2018-06-04T14:00:32.814Z,23.30
2018-06-04T14:01:32.739Z,21.80
2018-06-04T14:03:26.033Z,21.70
2018-06-04T14:04:25.978Z,22.80
2018-06-04T14:06:19.350Z,22.30
2018-06-04T14:07:19.280Z,21.50
2018-06-04T14:09:12.669Z,22.20
2018-06-04T14:10:12.521Z,22.70
2018-06-04T14:12:05.833Z,22.10
2018-06-04T14:13:05.759Z,20.80
2018-06-04T14:14:59.071Z,21.70
2018-06-04T14:15:59.002Z,21.10
2018-06-04T14:17:52.910Z,19.10
2018-06-04T14:18:52.248Z,18.50
2018-06-04T14:20:45.559Z,20.30
2018-06-04T14:21:45.485Z,18.90
2018-06-04T14:23:38.781Z,18.30
2018-06-04T14:24:38.727Z,19.40
2018-06-04T14:26:33.642Z,17.40
2018-06-04T14:27:33.066Z,16.60
2018-06-04T14:29:26.406Z,15.70
2018-06-04T14:30:26.253Z,15.50
2018-06-04T14:32:19.565Z,18.90
2018-06-04T14:33:19.493Z,17.60
2018-06-04T14:35:12.813Z,16.50
2018-06-04T14:36:12.733Z,15.20
2018-06-04T14:38:06.019Z,17.30
2018-06-04T14:39:05.974Z,15.70
2018-06-04T14:40:59.376Z,14.90
2018-06-04T14:41:59.279Z,14.30
2018-06-04T14:43:52.574Z,15.60
2018-06-04T14:44:52.520Z,15.20
2018-06-04T14:46:45.838Z,12.90
2018-06-04T14:47:45.767Z,13.60
2018-06-04T14:49:39.104Z,14.20
2018-06-04T14:50:39.003Z,14.00
2018-06-04T14:52:32.315Z,14.40
2018-06-04T14:53:32.256Z,13.30
2018-06-04T14:55:25.659Z,12.20
2018-06-04T14:56:25.484Z,12.80
2018-06-04T14:58:18.874Z,12.70
2018-06-04T14:59:18.713Z,12.90
2018-06-04T15:01:12.026Z,13.50
2018-06-04T15:02:11.954Z,13.60
2018-06-04T15:04:05.332Z,12.10
2018-06-04T15:05:05.283Z,13.40
2018-06-04T15:06:58.692Z,14.40
2018-06-04T15:07:58.518Z,12.80
2018-06-04T15:09:51.816Z,11.20
2018-06-04T15:10:51.762Z,11.90
2018-06-04T15:12:45.181Z,12.50
2018-06-04T15:13:44.999Z,13.10
2018-06-04T15:15:38.313Z,13.70
2018-06-04T15:16:38.240Z,13.70
2018-06-04T15:18:32.132Z,11.80
2018-06-04T15:19:31.482Z,10.60
2018-06-04T15:21:24.789Z,11.00
2018-06-04T15:22:24.725Z,11.60
2018-06-04T15:24:18.011Z,9.90
2018-06-04T15:25:17.956Z,11.40
2018-06-04T15:27:11.349Z,12.50
2018-06-04T15:28:11.283Z,12.10
2018-06-04T15:30:04.574Z,13.10
2018-06-04T15:31:04.519Z,13.10
2018-06-04T15:32:57.835Z,13.20
2018-06-04T15:33:57.764Z,14.10
2018-06-04T15:35:51.081Z,14.00
2018-06-04T15:36:51.000Z,13.90
2018-06-04T15:38:44.292Z,14.10
2018-06-04T15:39:44.238Z,14.90
2018-06-04T15:41:37.552Z,13.80
2018-06-04T15:42:37.478Z,13.80
2018-06-04T15:44:30.769Z,12.00
2018-06-04T15:45:30.715Z,13.20
2018-06-04T15:47:24.019Z,12.80
2018-06-04T15:48:23.947Z,12.60
2018-06-04T15:50:17.913Z,12.90
2018-06-04T15:51:17.277Z,11.70
2018-06-04T15:53:10.590Z,14.20
2018-06-04T15:54:10.518Z,15.00
2018-06-04T15:56:03.829Z,12.70
2018-06-04T15:57:03.756Z,13.30
2018-06-04T15:58:57.058Z,13.00
2018-06-04T15:59:56.994Z,13.60
2018-06-04T16:01:50.307Z,13.10
2018-06-04T16:02:50.280Z,12.50
2018-06-04T16:04:43.529Z,12.90
2018-06-04T16:05:43.479Z,12.80
2018-06-04T16:07:36.778Z,11.80
2018-06-04T16:08:36.707Z,12.20
2018-06-04T16:10:30.098Z,12.90
2018-06-04T16:11:29.944Z,13.90
2018-06-04T16:13:23.259Z,12.20
2018-06-04T16:14:23.185Z,12.60
2018-06-04T16:16:16.497Z,12.90
2018-06-04T16:17:16.425Z,13.30
2018-06-04T16:19:09.718Z,13.20
2018-06-04T16:20:09.668Z,13.20
2018-06-04T16:22:02.987Z,13.70
2018-06-04T16:23:02.916Z,12.70
2018-06-04T16:24:56.199Z,14.80
2018-06-04T16:25:56.146Z,14.40
2018-06-04T16:27:49.453Z,14.50
2018-06-04T16:28:49.379Z,14.00
2018-06-04T16:30:42.672Z,12.40
2018-06-04T16:31:42.618Z,13.70
2018-06-04T16:33:35.931Z,13.10
2018-06-04T16:34:35.858Z,12.40
2018-06-04T16:36:29.175Z,13.30
2018-06-04T16:37:29.213Z,13.00
2018-06-04T16:39:22.389Z,12.90
2018-06-04T16:40:22.335Z,11.70
2018-06-04T16:42:15.652Z,12.20
2018-06-04T16:43:15.573Z,13.40
2018-06-04T16:45:08.991Z,12.50
2018-06-04T16:46:08.815Z,12.40
2018-06-04T16:48:02.117Z,13.40
2018-06-04T16:49:02.042Z,12.90
2018-06-04T16:50:55.436Z,13.00
2018-06-04T16:51:55.282Z,12.40
2018-06-04T16:53:48.594Z,12.80
2018-06-04T16:54:48.525Z,13.60
2018-06-04T16:56:41.831Z,14.00
2018-06-04T16:57:41.764Z,14.30
2018-06-04T16:59:35.112Z,13.40
2018-06-04T17:00:34.992Z,13.30
2018-06-04T17:02:28.303Z,14.00
2018-06-04T17:03:28.230Z,13.90
2018-06-04T17:05:21.620Z,13.10
2018-06-04T17:06:21.466Z,12.90
2018-06-04T17:08:14.902Z,13.80
2018-06-04T17:09:14.704Z,13.60
2018-06-04T17:11:08.095Z,14.60
2018-06-04T17:12:08.027Z,13.20
2018-06-04T17:14:01.351Z,12.40
2018-06-04T17:15:01.277Z,13.00
2018-06-04T17:16:54.695Z,12.90
2018-06-04T17:17:54.513Z,13.10
2018-06-04T17:19:47.809Z,14.20
2018-06-04T17:20:47.749Z,13.30
2018-06-04T17:22:41.063Z,14.20
2018-06-04T17:23:40.986Z,13.50
2018-06-04T17:25:34.278Z,14.10
2018-06-04T17:26:34.217Z,14.10
2018-06-04T17:28:27.556Z,13.50
2018-06-04T17:29:27.459Z,14.00
2018-06-04T17:31:20.766Z,12.40
2018-06-04T17:32:20.711Z,12.50
2018-06-04T17:34:14.021Z,13.70
2018-06-04T17:35:13.948Z,14.30
2018-06-04T17:37:07.351Z,13.90
2018-06-04T17:38:07.276Z,14.40
2018-06-04T17:40:00.565Z,14.10
2018-06-04T17:41:00.509Z,15.10
2018-06-04T17:42:54.820Z,14.80
2018-06-04T17:43:54.743Z,14.40
2018-06-04T17:45:48.032Z,13.50
2018-06-04T17:46:47.979Z,13.60
2018-06-04T17:48:41.350Z,13.20
2018-06-04T17:49:41.275Z,12.50
2018-06-04T17:51:34.564Z,12.70
2018-06-04T17:52:34.508Z,13.20
2018-06-04T17:54:27.817Z,13.20
2018-06-04T17:55:27.744Z,13.80
2018-06-04T17:57:21.047Z,14.60
2018-06-04T17:58:20.967Z,14.10
2018-06-04T18:00:14.265Z,12.50
2018-06-04T18:01:14.202Z,13.40
2018-06-04T18:03:07.531Z,14.20
2018-06-04T18:04:07.460Z,13.70
2018-06-04T18:06:00.822Z,14.00
2018-06-04T18:07:00.671Z,13.80
2018-06-04T18:08:53.981Z,13.30
2018-06-04T18:09:53.907Z,13.10
2018-06-04T18:11:47.194Z,13.90
2018-06-04T18:12:47.140Z,14.30
2018-06-04T18:14:40.446Z,12.70
2018-06-04T18:15:40.369Z,13.70
2018-06-04T18:17:33.779Z,13.60
2018-06-04T18:18:33.593Z,13.50
2018-06-04T18:20:26.886Z,14.00
2018-06-04T18:21:26.829Z,14.00
2018-06-04T18:23:20.140Z,14.50
2018-06-04T18:24:20.060Z,13.90
2018-06-04T18:26:13.349Z,14.10
2018-06-04T18:27:13.296Z,13.30
2018-06-04T18:29:06.599Z,14.10
2018-06-04T18:30:06.524Z,13.90
2018-06-04T18:31:59.814Z,12.30
2018-06-04T18:32:59.757Z,13.00
2018-06-04T18:34:53.068Z,12.70
2018-06-04T18:35:52.987Z,12.30